This is the latest recevied weather packets stored in our database for station/object KE5SXT-2. If no packets are shown the sender has not sent any weather packets the latest 10 day(s).
| Time | Temp. | Humidity | Pressure | Rain* | Wind** | Luminosity | Snow |
|---|---|---|---|---|---|---|---|
| 1778047221 | 21.11° C | 42% | 1010.5 hPa | 0 mm | - | - | - |
| 1778045420 | 21.11° C | 41% | 1010.4 hPa | 0 mm | - | - | - |
| 1778044220 | 21.67° C | 39% | 1010.4 hPa | 0 mm | - | - | - |
| 1778043620 | 21.67° C | 39% | 1010.3 hPa | 0 mm | - | - | - |
| 1778043046 | 21.67° C | 38% | 1009.9 hPa | 0 mm | - | - | - |
| 1778042421 | 21.67° C | 38% | 1009.7 hPa | 0 mm | - | - | - |
| 1778040621 | 22.22° C | 37% | 1009.5 hPa | 0 mm | - | - | - |
| 1778036449 | 25° C | 29% | 1008 hPa | 0 mm | - | - | - |
| 1778034021 | 26.67° C | 26% | 1007.6 hPa | 0 mm | - | - | - |
| 1778032821 | 26.67° C | 26% | 1007.6 hPa | 0 mm | - | - | - |
| 1778031021 | 27.22° C | 24% | 1007.5 hPa | 0 mm | - | - | - |
| 1778019045 | 28.33° C | 21% | 1008.9 hPa | 0 mm | - | - | - |
| 1778012420 | 30° C | 19% | 1009.8 hPa | 0 mm | - | - | - |
| 1778011820 | 30° C | 19% | 1009.6 hPa | 0 mm | - | - | - |
| 1778011246 | 29.44° C | 19% | 1009.6 hPa | 0 mm | - | - | - |
| 1778010620 | 29.44° C | 22% | 1009.8 hPa | 0 mm | - | - | - |
| 1778006422 | 28.89° C | 21% | 1010.5 hPa | 0 mm | - | - | - |
| 1778004622 | 28.33° C | 22% | 1010.8 hPa | 0 mm | - | - | - |
| 1778001022 | 28.33° C | 21% | 1010.9 hPa | 0 mm | - | - | - |
| 1777999247 | 27.78° C | 23% | 1010.7 hPa | 0 mm | - | - | - |
| 1777995622 | 25.56° C | 26% | 1010.7 hPa | 0 mm | - | - | - |
| 1777994422 | 23.89° C | 31% | 1010.4 hPa | 0 mm | - | - | - |
| 1777991422 | 21.67° C | 42% | 1009.9 hPa | 0 mm | - | - | - |
| 1777990825 | 21.11° C | 48% | 1009.7 hPa | 0 mm | - | - | - |
| 1777983622 | 17.22° C | 79% | 1008.4 hPa | 0 mm | - | - | - |
* Rain latest hour (hover to see other rain measurements)
** Current wind speed in m/s (hover to see current wind gust speed)